createdAt,value
2023-03-13T00:00:53.981Z,60.10
2023-03-13T00:03:31.480Z,59.50
2023-03-13T00:06:07.416Z,59.30
2023-03-13T00:08:47.069Z,59.90
2023-03-13T00:11:23.629Z,60.50
2023-03-13T00:14:03.795Z,60.70
2023-03-13T00:16:41.227Z,60.30
2023-03-13T00:19:19.708Z,60.70
2023-03-13T00:21:56.672Z,60.50
2023-03-13T00:24:35.685Z,60.70
2023-03-13T00:27:12.109Z,60.50
2023-03-13T00:29:47.518Z,60.20
2023-03-13T00:32:26.361Z,60.20
2023-03-13T00:35:05.366Z,60.20
2023-03-13T00:37:41.957Z,60.00
2023-03-13T00:40:21.338Z,60.20
2023-03-13T00:43:00.370Z,59.70
2023-03-13T00:45:35.461Z,59.60
2023-03-13T00:48:11.508Z,59.30
2023-03-13T00:50:48.701Z,59.30
2023-03-13T00:53:24.801Z,59.10
2023-03-13T00:56:01.657Z,58.50
2023-03-13T00:58:42.516Z,58.00
2023-03-13T01:01:19.377Z,58.70
2023-03-13T01:03:56.899Z,59.10
2023-03-13T01:06:36.493Z,59.10
2023-03-13T01:09:15.644Z,59.20
2023-03-13T01:11:51.973Z,58.70
2023-03-13T01:14:28.676Z,58.80
2023-03-13T01:17:05.696Z,58.50
2023-03-13T01:19:41.565Z,58.60
2023-03-13T01:22:19.229Z,58.50
2023-03-13T01:24:56.825Z,58.40
2023-03-13T01:27:36.656Z,58.40
2023-03-13T01:30:14.271Z,58.50
2023-03-13T01:32:51.220Z,58.00
2023-03-13T01:35:28.780Z,58.40
2023-03-13T01:38:06.315Z,59.20
2023-03-13T01:40:46.735Z,59.50
2023-03-13T01:43:27.988Z,59.80
2023-03-13T01:46:18.221Z,59.80
2023-03-13T01:49:23.651Z,60.20
2023-03-13T01:52:12.222Z,60.10
2023-03-13T01:55:05.146Z,60.40
2023-03-13T01:57:45.968Z,60.50
2023-03-13T02:00:24.118Z,60.00
2023-03-13T02:03:05.519Z,60.10
2023-03-13T02:05:42.772Z,59.30
2023-03-13T02:08:23.311Z,60.00
2023-03-13T02:11:12.315Z,59.60
2023-03-13T02:13:49.155Z,59.40
2023-03-13T02:16:27.197Z,59.40
2023-03-13T02:19:02.897Z,59.80
2023-03-13T02:21:47.789Z,59.00
2023-03-13T02:24:32.039Z,58.60
2023-03-13T02:27:15.567Z,58.50
2023-03-13T02:29:56.533Z,59.00
2023-03-13T02:32:34.463Z,57.80
2023-03-13T02:35:13.759Z,58.90
2023-03-13T02:37:52.450Z,58.80
2023-03-13T02:40:34.406Z,58.50
2023-03-13T02:43:17.394Z,58.40
2023-03-13T02:46:09.518Z,58.70
2023-03-13T02:48:51.529Z,58.60
2023-03-13T02:51:33.792Z,58.60
2023-03-13T02:54:15.416Z,58.70
2023-03-13T02:56:54.179Z,58.70
2023-03-13T02:59:31.281Z,58.90
2023-03-13T03:02:07.218Z,58.80
2023-03-13T03:04:45.769Z,58.90
2023-03-13T03:07:22.592Z,60.40
2023-03-13T03:09:59.568Z,60.50
2023-03-13T03:12:35.736Z,61.40
2023-03-13T03:15:17.537Z,61.30
2023-03-13T03:18:02.282Z,61.40
2023-03-13T03:20:37.504Z,61.50
2023-03-13T03:23:14.110Z,61.40
2023-03-13T03:25:49.208Z,61.00
2023-03-13T03:28:25.171Z,62.10
2023-03-13T03:31:07.770Z,61.40
2023-03-13T03:33:49.226Z,62.10
2023-03-13T03:36:26.819Z,62.80
2023-03-13T03:39:02.926Z,61.90
2023-03-13T03:41:39.269Z,62.70
2023-03-13T03:44:15.541Z,62.90
2023-03-13T03:47:15.119Z,62.30
2023-03-13T03:49:55.826Z,61.60
2023-03-13T03:52:30.969Z,61.60
2023-03-13T03:55:07.312Z,61.10
2023-03-13T03:57:42.449Z,60.90
2023-03-13T04:00:27.042Z,60.60
2023-03-13T04:03:05.149Z,61.20
2023-03-13T04:05:40.993Z,61.20
2023-03-13T04:08:16.484Z,61.20
2023-03-13T04:10:52.535Z,60.70
2023-03-13T04:13:31.126Z,60.90
2023-03-13T04:16:12.904Z,60.40
2023-03-13T04:18:51.816Z,60.40
2023-03-13T04:21:28.231Z,59.90
2023-03-13T04:24:09.568Z,60.70
2023-03-13T04:26:48.323Z,61.00
2023-03-13T04:29:27.668Z,60.80
2023-03-13T04:32:26.965Z,59.40
2023-03-13T04:35:25.406Z,58.80
2023-03-13T04:38:22.854Z,58.90
2023-03-13T04:40:58.264Z,58.70
2023-03-13T04:43:56.981Z,58.00
2023-03-13T04:46:52.824Z,58.70
2023-03-13T04:49:41.813Z,59.30
2023-03-13T04:52:32.574Z,59.90
2023-03-13T04:55:37.068Z,60.70
2023-03-13T04:58:25.787Z,60.50
2023-03-13T05:01:17.705Z,60.60
2023-03-13T05:04:22.026Z,59.60
2023-03-13T05:07:09.962Z,59.90
2023-03-13T05:10:09.510Z,60.10
2023-03-13T05:12:56.928Z,59.90
2023-03-13T05:15:51.383Z,60.20
2023-03-13T05:19:01.644Z,60.30
2023-03-13T05:21:46.193Z,60.30
2023-03-13T05:24:47.827Z,60.60
2023-03-13T05:27:42.743Z,60.60
2023-03-13T05:30:31.020Z,61.00
2023-03-13T05:33:23.738Z,60.40
2023-03-13T05:36:14.393Z,60.90
2023-03-13T05:39:10.518Z,60.80
2023-03-13T05:41:50.025Z,61.00
2023-03-13T05:44:49.636Z,60.20
2023-03-13T05:47:48.816Z,61.30
2023-03-13T05:50:41.280Z,61.40
2023-03-13T05:53:36.288Z,60.80
2023-03-13T05:56:20.711Z,61.00
2023-03-13T05:59:05.615Z,61.00
2023-03-13T06:02:02.761Z,60.10
2023-03-13T06:04:50.016Z,60.50
2023-03-13T06:07:27.277Z,60.70
2023-03-13T06:10:03.050Z,60.80
2023-03-13T06:12:38.277Z,60.90
2023-03-13T06:15:20.442Z,60.80
2023-03-13T06:18:06.366Z,61.20
2023-03-13T06:20:42.672Z,61.70
2023-03-13T06:23:17.922Z,61.70
2023-03-13T06:25:54.421Z,61.80
2023-03-13T06:28:36.858Z,61.90
2023-03-13T06:31:14.817Z,61.90
2023-03-13T06:33:56.101Z,62.10
2023-03-13T06:36:33.655Z,62.00
2023-03-13T06:39:09.779Z,61.90
2023-03-13T06:41:45.797Z,62.30
2023-03-13T06:44:21.887Z,62.30
2023-03-13T06:46:59.405Z,62.30
2023-03-13T06:49:37.420Z,62.30
2023-03-13T06:52:14.095Z,62.30
2023-03-13T06:54:49.390Z,62.50
2023-03-13T06:57:25.903Z,62.30
2023-03-13T07:00:01.242Z,63.00
2023-03-13T07:02:36.734Z,63.40
2023-03-13T07:05:16.202Z,63.50
2023-03-13T07:07:55.322Z,64.60
2023-03-13T07:10:30.548Z,64.70
2023-03-13T07:13:06.195Z,64.60
2023-03-13T07:15:41.642Z,64.80
2023-03-13T07:18:17.910Z,65.70
2023-03-13T07:21:01.256Z,65.30
2023-03-13T07:23:39.227Z,65.50
2023-03-13T07:26:17.391Z,65.50
2023-03-13T07:28:53.924Z,65.30
2023-03-13T07:31:29.576Z,65.10
2023-03-13T07:34:05.049Z,65.00
2023-03-13T07:36:46.190Z,65.10
2023-03-13T07:39:22.789Z,65.10
2023-03-13T07:41:58.025Z,64.80
2023-03-13T07:44:34.164Z,65.00
2023-03-13T07:47:10.349Z,64.60
2023-03-13T07:49:48.282Z,64.50
2023-03-13T07:52:26.162Z,64.50
2023-03-13T07:55:05.304Z,64.20
2023-03-13T07:57:41.285Z,64.70
2023-03-13T08:00:20.453Z,65.00
2023-03-13T08:02:57.560Z,64.90
2023-03-13T08:05:33.848Z,65.00
2023-03-13T08:08:12.313Z,65.40
2023-03-13T08:10:51.164Z,65.50
2023-03-13T08:13:28.018Z,65.40
2023-03-13T08:16:13.661Z,65.20
2023-03-13T08:18:50.756Z,65.10
2023-03-13T08:21:28.307Z,65.00
2023-03-13T08:24:08.578Z,64.90
2023-03-13T08:26:45.961Z,64.70
2023-03-13T08:29:22.975Z,64.50
2023-03-13T08:32:02.373Z,64.40
2023-03-13T08:34:38.803Z,63.80
2023-03-13T08:37:15.221Z,64.40
2023-03-13T08:39:52.914Z,64.40
2023-03-13T08:42:32.638Z,64.30
2023-03-13T08:45:10.257Z,64.10
2023-03-13T08:47:45.658Z,63.90
2023-03-13T08:50:21.402Z,63.80
2023-03-13T08:52:58.725Z,62.40
2023-03-13T08:55:36.963Z,62.90
2023-03-13T08:58:15.294Z,62.40
2023-03-13T09:00:50.422Z,62.20
2023-03-13T09:03:28.010Z,62.50
2023-03-13T09:06:08.530Z,62.60
2023-03-13T09:08:44.894Z,62.80
2023-03-13T09:11:24.961Z,62.90
2023-03-13T09:14:02.941Z,63.00
2023-03-13T09:16:38.965Z,62.70
2023-03-13T09:19:15.586Z,63.20
2023-03-13T09:21:52.274Z,62.90
2023-03-13T09:24:28.601Z,63.30
2023-03-13T09:27:06.933Z,63.30
2023-03-13T09:29:44.092Z,63.20
2023-03-13T09:32:22.379Z,63.60
2023-03-13T09:34:58.910Z,63.70
2023-03-13T09:37:34.034Z,64.00
2023-03-13T09:40:10.184Z,64.20
2023-03-13T09:42:54.052Z,64.10
2023-03-13T09:45:37.506Z,63.80
2023-03-13T09:48:17.917Z,63.90
2023-03-13T09:51:04.136Z,63.90
2023-03-13T09:53:46.088Z,63.90
2023-03-13T09:56:28.886Z,64.20
2023-03-13T09:59:11.121Z,63.70
2023-03-13T10:01:49.804Z,63.80
2023-03-13T10:04:44.555Z,63.40
2023-03-13T10:07:23.924Z,63.50
2023-03-13T10:09:59.180Z,63.10
2023-03-13T10:12:39.895Z,62.60
2023-03-13T10:15:39.530Z,61.90
2023-03-13T10:18:23.190Z,61.60
2023-03-13T10:21:01.545Z,61.70
2023-03-13T10:23:48.170Z,61.70
2023-03-13T10:26:26.924Z,61.30
2023-03-13T10:29:06.944Z,61.10
2023-03-13T10:31:47.000Z,61.20
2023-03-13T10:34:22.396Z,60.00
2023-03-13T10:37:06.229Z,61.20
2023-03-13T10:39:43.877Z,61.60
2023-03-13T10:42:36.338Z,61.80
2023-03-13T10:45:22.238Z,62.10
2023-03-13T10:48:04.966Z,62.00
2023-03-13T10:50:45.891Z,61.60
2023-03-13T10:53:29.104Z,61.30
2023-03-13T10:56:08.340Z,61.90
2023-03-13T10:58:48.986Z,61.80
2023-03-13T11:01:28.269Z,61.90
2023-03-13T11:04:23.217Z,62.20
2023-03-13T11:07:07.272Z,62.30
2023-03-13T11:09:42.342Z,62.80
2023-03-13T11:12:24.074Z,63.10
2023-03-13T11:15:03.994Z,63.20
2023-03-13T11:17:44.217Z,63.00
2023-03-13T11:20:29.622Z,63.00
2023-03-13T11:23:19.974Z,62.80
2023-03-13T11:26:04.297Z,63.20
2023-03-13T11:28:51.754Z,63.10
2023-03-13T11:31:30.212Z,63.00
2023-03-13T11:34:16.172Z,62.80
2023-03-13T11:37:00.137Z,62.40
2023-03-13T11:39:50.808Z,62.90
2023-03-13T11:42:49.894Z,62.30
2023-03-13T11:45:50.597Z,62.80
2023-03-13T11:48:41.668Z,62.80
2023-03-13T11:51:25.046Z,63.00
2023-03-13T11:54:28.414Z,63.00
2023-03-13T11:57:11.734Z,62.90
2023-03-13T11:59:57.923Z,63.10
2023-03-13T12:02:38.714Z,63.10
2023-03-13T12:05:18.808Z,63.60
2023-03-13T12:08:00.557Z,63.70
2023-03-13T12:10:41.700Z,64.30
2023-03-13T12:13:22.926Z,64.40
2023-03-13T12:16:01.307Z,64.30
2023-03-13T12:18:41.817Z,64.40
2023-03-13T12:21:24.171Z,64.40
2023-03-13T12:24:08.993Z,64.70
2023-03-13T12:26:53.290Z,64.90
2023-03-13T12:29:41.152Z,64.50
2023-03-13T12:32:21.122Z,64.60
2023-03-13T12:35:11.091Z,64.50
2023-03-13T12:37:54.695Z,65.20
2023-03-13T12:40:36.075Z,65.60
2023-03-13T12:43:18.893Z,65.60
2023-03-13T12:46:09.946Z,65.30
2023-03-13T12:49:09.806Z,65.60
2023-03-13T12:51:59.204Z,65.30
2023-03-13T12:54:59.708Z,65.60
2023-03-13T12:58:15.023Z,65.70
2023-03-13T13:00:54.757Z,66.10
2023-03-13T13:03:38.315Z,66.00
2023-03-13T13:06:16.973Z,66.00
2023-03-13T13:09:06.646Z,66.20
2023-03-13T13:11:50.975Z,66.30
2023-03-13T13:15:13.245Z,66.30
2023-03-13T13:18:03.737Z,66.40
2023-03-13T13:20:48.812Z,66.50
2023-03-13T13:23:40.016Z,66.30
2023-03-13T13:26:51.552Z,65.80
2023-03-13T13:30:03.169Z,65.40
2023-03-13T13:32:44.364Z,65.00
2023-03-13T13:35:36.302Z,65.20
2023-03-13T13:38:48.611Z,66.00
2023-03-13T13:41:37.780Z,65.50
2023-03-13T13:45:00.509Z,65.60
2023-03-13T13:47:36.744Z,65.50
2023-03-13T13:50:23.407Z,65.30
2023-03-13T13:53:33.815Z,65.30
2023-03-13T13:56:29.957Z,64.80
2023-03-13T13:59:14.618Z,65.10
2023-03-13T14:01:51.280Z,65.10
2023-03-13T14:04:32.981Z,65.40
2023-03-13T14:07:10.666Z,65.70
2023-03-13T14:09:57.463Z,65.10
2023-03-13T14:12:35.491Z,65.60
2023-03-13T14:15:18.884Z,65.40
2023-03-13T14:17:55.866Z,65.50
2023-03-13T14:20:37.490Z,65.80
2023-03-13T14:23:14.711Z,65.70
2023-03-13T14:25:53.552Z,65.70
2023-03-13T14:28:30.691Z,65.70
2023-03-13T14:31:06.988Z,65.70
2023-03-13T14:33:42.389Z,66.10
2023-03-13T14:36:18.799Z,65.60
2023-03-13T14:38:59.421Z,65.70
2023-03-13T14:41:46.046Z,65.50
2023-03-13T14:44:32.835Z,65.80
2023-03-13T14:47:12.208Z,66.00
2023-03-13T14:49:52.259Z,65.80
2023-03-13T14:52:31.177Z,65.90
2023-03-13T14:55:08.365Z,65.80
2023-03-13T14:58:00.832Z,66.10
2023-03-13T15:00:41.332Z,66.20
2023-03-13T15:03:34.911Z,66.10
2023-03-13T15:06:18.894Z,66.20
2023-03-13T15:09:15.884Z,66.20
2023-03-13T15:12:00.585Z,65.90
2023-03-13T15:14:43.544Z,66.10
2023-03-13T15:17:23.846Z,66.20
2023-03-13T15:20:02.276Z,66.40
2023-03-13T15:22:41.607Z,66.50
2023-03-13T15:25:22.424Z,66.80
2023-03-13T15:27:57.665Z,67.30
2023-03-13T15:30:35.348Z,67.70
2023-03-13T15:33:15.116Z,67.80
2023-03-13T15:35:51.233Z,67.80
2023-03-13T15:38:28.543Z,67.90
2023-03-13T15:41:04.278Z,68.20
2023-03-13T15:43:40.799Z,68.10
2023-03-13T15:46:20.346Z,68.20
2023-03-13T15:48:56.309Z,68.00
2023-03-13T15:51:32.435Z,68.10
2023-03-13T15:54:07.685Z,67.80
2023-03-13T15:56:47.602Z,67.70
2023-03-13T15:59:23.447Z,67.70
2023-03-13T16:02:00.868Z,67.40
2023-03-13T16:04:41.970Z,67.40
2023-03-13T16:07:18.630Z,67.40
2023-03-13T16:09:54.643Z,67.20
2023-03-13T16:12:30.952Z,67.60
2023-03-13T16:15:06.865Z,67.60
2023-03-13T16:17:44.495Z,67.50
2023-03-13T16:20:22.795Z,67.50
2023-03-13T16:22:59.256Z,67.40
2023-03-13T16:25:36.285Z,68.10
2023-03-13T16:28:13.907Z,68.50
2023-03-13T16:30:49.248Z,68.80
2023-03-13T16:33:27.715Z,69.30
2023-03-13T16:36:03.524Z,69.60
2023-03-13T16:38:39.081Z,69.30
2023-03-13T16:41:19.982Z,69.10
2023-03-13T16:43:55.777Z,69.30
2023-03-13T16:46:36.861Z,70.50
2023-03-13T16:49:18.469Z,72.00
2023-03-13T16:51:54.349Z,72.30
2023-03-13T16:54:29.729Z,72.10
2023-03-13T16:57:06.296Z,72.90
2023-03-13T16:59:42.267Z,73.00
2023-03-13T17:02:22.180Z,73.20
2023-03-13T17:04:59.725Z,75.10
2023-03-13T17:07:35.673Z,75.60
2023-03-13T17:10:24.554Z,75.60
2023-03-13T17:12:59.939Z,75.80
2023-03-13T17:15:37.393Z,76.00
2023-03-13T17:18:13.974Z,75.80
2023-03-13T17:20:52.774Z,75.80
2023-03-13T17:23:30.204Z,75.90
2023-03-13T17:26:05.757Z,76.60
2023-03-13T17:28:41.100Z,76.70
2023-03-13T17:31:17.231Z,76.50
2023-03-13T17:33:53.012Z,76.50
2023-03-13T17:36:31.861Z,76.70
2023-03-13T17:39:13.140Z,76.50
2023-03-13T17:41:49.726Z,76.30
2023-03-13T17:44:26.064Z,76.50
2023-03-13T17:47:01.473Z,76.50
2023-03-13T17:49:36.778Z,76.20
2023-03-13T17:52:18.652Z,76.40
2023-03-13T17:54:59.546Z,76.20
2023-03-13T17:57:35.138Z,76.20
2023-03-13T18:00:24.459Z,76.50
2023-03-13T18:03:00.507Z,76.60
2023-03-13T18:05:35.891Z,76.80
2023-03-13T18:08:16.346Z,77.40
2023-03-13T18:10:51.791Z,76.80
2023-03-13T18:13:27.335Z,76.60
2023-03-13T18:16:02.616Z,76.30
2023-03-13T18:18:38.294Z,76.70
2023-03-13T18:21:13.695Z,76.50
2023-03-13T18:23:51.112Z,75.90
2023-03-13T18:26:35.152Z,76.10
2023-03-13T18:29:17.853Z,76.20
2023-03-13T18:31:53.478Z,76.10
2023-03-13T18:34:30.338Z,75.90
2023-03-13T18:37:06.873Z,76.10
2023-03-13T18:39:44.278Z,75.80
2023-03-13T18:42:20.103Z,75.90
2023-03-13T18:44:56.797Z,76.20
2023-03-13T18:47:33.165Z,76.10
2023-03-13T18:50:14.381Z,76.00
2023-03-13T18:52:50.375Z,76.30
2023-03-13T18:55:28.620Z,76.40
2023-03-13T18:58:04.508Z,76.30
2023-03-13T19:00:40.648Z,76.20
2023-03-13T19:03:15.932Z,76.00
2023-03-13T19:05:51.413Z,75.80
2023-03-13T19:08:26.959Z,75.90
2023-03-13T19:11:04.489Z,76.00
2023-03-13T19:13:41.191Z,76.40
2023-03-13T19:16:25.348Z,76.40
2023-03-13T19:19:02.672Z,76.20
2023-03-13T19:21:38.416Z,75.50
2023-03-13T19:24:13.852Z,74.80
2023-03-13T19:26:53.539Z,74.90
2023-03-13T19:29:30.599Z,74.50
2023-03-13T19:32:08.436Z,74.70
2023-03-13T19:34:44.316Z,74.20
2023-03-13T19:37:22.069Z,74.30
2023-03-13T19:39:57.363Z,74.70
2023-03-13T19:42:36.849Z,74.90
2023-03-13T19:45:16.093Z,74.70
2023-03-13T19:47:51.696Z,75.00
2023-03-13T19:50:31.404Z,74.90
2023-03-13T19:53:07.403Z,74.90
2023-03-13T19:55:42.709Z,75.10
2023-03-13T19:58:21.015Z,75.60
2023-03-13T20:00:58.983Z,75.50
2023-03-13T20:03:38.350Z,75.50
2023-03-13T20:06:17.709Z,75.60
2023-03-13T20:08:53.818Z,75.90
2023-03-13T20:11:33.104Z,75.80
2023-03-13T20:14:10.942Z,76.00
2023-03-13T20:16:49.042Z,76.00
2023-03-13T20:19:26.227Z,76.30
2023-03-13T20:22:05.414Z,76.80
2023-03-13T20:24:41.269Z,76.60
2023-03-13T20:27:16.694Z,76.90
2023-03-13T20:29:55.443Z,76.60
2023-03-13T20:32:36.785Z,77.00
2023-03-13T20:35:15.965Z,76.50
2023-03-13T20:37:51.673Z,76.60
2023-03-13T20:40:27.529Z,76.70
2023-03-13T20:43:02.881Z,76.90
2023-03-13T20:45:43.289Z,76.40
2023-03-13T20:48:19.454Z,76.60
2023-03-13T20:50:58.298Z,76.40
2023-03-13T20:53:34.466Z,76.80
2023-03-13T20:56:10.882Z,76.70
2023-03-13T20:58:46.150Z,77.20
2023-03-13T21:01:27.439Z,77.00
2023-03-13T21:04:03.726Z,77.30
2023-03-13T21:06:40.297Z,77.60
2023-03-13T21:09:17.276Z,77.40
2023-03-13T21:11:54.397Z,77.70
2023-03-13T21:14:29.865Z,77.70
2023-03-13T21:17:07.380Z,77.80
2023-03-13T21:19:44.651Z,77.90
2023-03-13T21:22:20.280Z,78.00
2023-03-13T21:24:55.831Z,78.00
2023-03-13T21:27:33.436Z,78.00
2023-03-13T21:30:12.030Z,78.20
2023-03-13T21:32:50.956Z,77.90
2023-03-13T21:35:27.089Z,78.30
2023-03-13T21:38:02.810Z,78.20
2023-03-13T21:40:41.531Z,78.20
2023-03-13T21:43:17.472Z,78.80
2023-03-13T21:45:52.922Z,78.90
2023-03-13T21:48:30.498Z,78.70
2023-03-13T21:51:06.951Z,78.80
2023-03-13T21:53:43.866Z,79.20
2023-03-13T21:56:19.214Z,79.40
2023-03-13T21:58:54.695Z,79.60
2023-03-13T22:01:31.030Z,79.90
2023-03-13T22:04:11.853Z,79.80
2023-03-13T22:06:47.735Z,79.70
2023-03-13T22:09:26.352Z,79.70
2023-03-13T22:12:01.759Z,79.50
2023-03-13T22:14:37.180Z,79.70
2023-03-13T22:17:18.298Z,79.80
2023-03-13T22:19:55.797Z,79.80
2023-03-13T22:22:36.319Z,79.20
2023-03-13T22:25:12.532Z,78.60
2023-03-13T22:27:47.765Z,79.40
2023-03-13T22:30:24.510Z,79.30
2023-03-13T22:32:59.901Z,78.90
2023-03-13T22:35:38.779Z,78.70
2023-03-13T22:38:15.150Z,79.20
2023-03-13T22:44:59.655Z,78.50
2023-03-13T22:47:35.172Z,77.90
2023-03-13T22:50:12.626Z,78.80
2023-03-13T22:52:49.911Z,78.60
2023-03-13T22:55:26.200Z,78.40
2023-03-13T22:58:01.746Z,78.80
2023-03-13T23:00:37.019Z,79.50
2023-03-13T23:03:12.935Z,80.10
2023-03-13T23:05:49.870Z,79.80
2023-03-13T23:08:27.782Z,79.30
2023-03-13T23:11:06.930Z,79.20
2023-03-13T23:13:42.949Z,79.50
2023-03-13T23:16:19.603Z,79.90
2023-03-13T23:18:55.724Z,79.70
2023-03-13T23:21:35.532Z,80.10
2023-03-13T23:24:14.383Z,79.90
2023-03-13T23:26:50.856Z,79.60
2023-03-13T23:29:26.442Z,79.90
2023-03-13T23:32:02.062Z,80.20
2023-03-13T23:34:40.530Z,80.30
2023-03-13T23:37:20.825Z,80.10
2023-03-13T23:39:58.931Z,79.50
2023-03-13T23:42:34.713Z,79.10
2023-03-13T23:45:10.897Z,79.10
2023-03-13T23:47:47.510Z,79.20
2023-03-13T23:50:23.411Z,78.80
2023-03-13T23:52:58.952Z,79.40
2023-03-13T23:55:40.454Z,79.80
2023-03-13T23:58:16.884Z,80.40
